sensor_id;sensor_type;location;lat;lon;timestamp;P1;durP1;ratioP1;P2;durP2;ratioP2
43706;SDS011;61348;53.392;-6.248;2023-10-31T00:00:51;30.67;;;17.42;;
43706;SDS011;61348;53.392;-6.248;2023-10-31T00:03:17;25.73;;;16.60;;
43706;SDS011;61348;53.392;-6.248;2023-10-31T00:05:44;29.60;;;17.88;;
43706;SDS011;61348;53.392;-6.248;2023-10-31T00:08:11;25.02;;;15.25;;
43706;SDS011;61348;53.392;-6.248;2023-10-31T00:10:38;35.72;;;17.58;;
43706;SDS011;61348;53.392;-6.248;2023-10-31T00:13:04;26.60;;;16.52;;
43706;SDS011;61348;53.392;-6.248;2023-10-31T00:15:31;28.38;;;16.42;;
43706;SDS011;61348;53.392;-6.248;2023-10-31T00:17:58;32.10;;;19.02;;
43706;SDS011;61348;53.392;-6.248;2023-10-31T00:20:25;29.05;;;17.08;;
43706;SDS011;61348;53.392;-6.248;2023-10-31T00:22:51;35.08;;;19.55;;
43706;SDS011;61348;53.392;-6.248;2023-10-31T00:25:18;35.08;;;19.35;;
43706;SDS011;61348;53.392;-6.248;2023-10-31T00:27:46;28.02;;;17.15;;
43706;SDS011;61348;53.392;-6.248;2023-10-31T00:30:12;25.45;;;15.57;;
43706;SDS011;61348;53.392;-6.248;2023-10-31T00:32:39;27.27;;;18.05;;
43706;SDS011;61348;53.392;-6.248;2023-10-31T00:35:06;34.15;;;19.75;;
43706;SDS011;61348;53.392;-6.248;2023-10-31T00:37:34;30.90;;;19.40;;
43706;SDS011;61348;53.392;-6.248;2023-10-31T00:40:01;39.63;;;19.67;;
43706;SDS011;61348;53.392;-6.248;2023-10-31T00:42:27;46.53;;;21.73;;
43706;SDS011;61348;53.392;-6.248;2023-10-31T00:44:54;56.17;;;20.75;;
43706;SDS011;61348;53.392;-6.248;2023-10-31T00:47:21;61.65;;;24.08;;
43706;SDS011;61348;53.392;-6.248;2023-10-31T00:49:49;87.03;;;25.83;;
43706;SDS011;61348;53.392;-6.248;2023-10-31T00:52:16;153.15;;;29.70;;
43706;SDS011;61348;53.392;-6.248;2023-10-31T00:54:43;155.40;;;30.38;;
43706;SDS011;61348;53.392;-6.248;2023-10-31T00:57:10;204.80;;;37.05;;
43706;SDS011;61348;53.392;-6.248;2023-10-31T00:59:36;136.55;;;32.60;;
43706;SDS011;61348;53.392;-6.248;2023-10-31T01:02:05;248.32;;;39.72;;
43706;SDS011;61348;53.392;-6.248;2023-10-31T01:04:32;187.85;;;35.05;;
43706;SDS011;61348;53.392;-6.248;2023-10-31T01:06:59;192.48;;;34.53;;
43706;SDS011;61348;53.392;-6.248;2023-10-31T01:09:25;183.90;;;32.05;;
43706;SDS011;61348;53.392;-6.248;2023-10-31T01:11:52;161.32;;;33.45;;
43706;SDS011;61348;53.392;-6.248;2023-10-31T01:14:20;123.40;;;30.70;;
43706;SDS011;61348;53.392;-6.248;2023-10-31T01:16:47;110.70;;;29.05;;
43706;SDS011;61348;53.392;-6.248;2023-10-31T01:19:13;126.72;;;31.02;;
43706;SDS011;61348;53.392;-6.248;2023-10-31T01:21:40;101.97;;;30.20;;
43706;SDS011;61348;53.392;-6.248;2023-10-31T01:24:07;85.82;;;24.60;;
43706;SDS011;61348;53.392;-6.248;2023-10-31T01:26:34;61.42;;;24.15;;
43706;SDS011;61348;53.392;-6.248;2023-10-31T01:29:02;93.38;;;31.15;;
43706;SDS011;61348;53.392;-6.248;2023-10-31T01:31:29;60.05;;;23.67;;
43706;SDS011;61348;53.392;-6.248;2023-10-31T01:33:56;55.22;;;25.13;;
43706;SDS011;61348;53.392;-6.248;2023-10-31T01:36:26;62.95;;;28.48;;
43706;SDS011;61348;53.392;-6.248;2023-10-31T01:38:53;55.50;;;24.25;;
43706;SDS011;61348;53.392;-6.248;2023-10-31T01:41:20;55.55;;;23.73;;
43706;SDS011;61348;53.392;-6.248;2023-10-31T01:43:46;52.35;;;22.80;;
43706;SDS011;61348;53.392;-6.248;2023-10-31T01:46:13;60.25;;;23.75;;
43706;SDS011;61348;53.392;-6.248;2023-10-31T01:48:41;72.50;;;22.15;;
43706;SDS011;61348;53.392;-6.248;2023-10-31T01:51:09;59.63;;;21.00;;
43706;SDS011;61348;53.392;-6.248;2023-10-31T01:53:36;59.22;;;21.23;;
43706;SDS011;61348;53.392;-6.248;2023-10-31T01:56:03;72.93;;;21.17;;
43706;SDS011;61348;53.392;-6.248;2023-10-31T01:58:33;68.65;;;20.33;;
43706;SDS011;61348;53.392;-6.248;2023-10-31T02:01:01;59.15;;;20.45;;
43706;SDS011;61348;53.392;-6.248;2023-10-31T02:03:28;47.72;;;17.65;;
43706;SDS011;61348;53.392;-6.248;2023-10-31T02:05:56;49.78;;;18.17;;
43706;SDS011;61348;53.392;-6.248;2023-10-31T02:08:24;48.13;;;16.48;;
43706;SDS011;61348;53.392;-6.248;2023-10-31T02:10:51;48.47;;;16.98;;
43706;SDS011;61348;53.392;-6.248;2023-10-31T02:13:18;56.92;;;16.88;;
43706;SDS011;61348;53.392;-6.248;2023-10-31T02:15:45;45.50;;;15.98;;
43706;SDS011;61348;53.392;-6.248;2023-10-31T02:18:12;47.80;;;16.65;;
43706;SDS011;61348;53.392;-6.248;2023-10-31T02:20:39;56.80;;;17.23;;
43706;SDS011;61348;53.392;-6.248;2023-10-31T02:23:07;61.00;;;17.27;;
43706;SDS011;61348;53.392;-6.248;2023-10-31T02:25:34;54.30;;;17.98;;
43706;SDS011;61348;53.392;-6.248;2023-10-31T02:28:01;56.75;;;18.08;;
43706;SDS011;61348;53.392;-6.248;2023-10-31T02:30:29;50.67;;;15.43;;
43706;SDS011;61348;53.392;-6.248;2023-10-31T02:32:56;45.60;;;17.30;;
43706;SDS011;61348;53.392;-6.248;2023-10-31T02:35:23;48.80;;;19.35;;
43706;SDS011;61348;53.392;-6.248;2023-10-31T02:37:50;42.53;;;18.33;;
43706;SDS011;61348;53.392;-6.248;2023-10-31T02:40:17;48.75;;;19.52;;
43706;SDS011;61348;53.392;-6.248;2023-10-31T02:42:45;52.38;;;20.88;;
43706;SDS011;61348;53.392;-6.248;2023-10-31T02:45:12;54.30;;;22.13;;
43706;SDS011;61348;53.392;-6.248;2023-10-31T02:47:38;47.70;;;22.13;;
43706;SDS011;61348;53.392;-6.248;2023-10-31T02:50:05;56.53;;;24.13;;
43706;SDS011;61348;53.392;-6.248;2023-10-31T02:52:33;55.53;;;22.55;;
43706;SDS011;61348;53.392;-6.248;2023-10-31T02:55:00;48.72;;;21.77;;
43706;SDS011;61348;53.392;-6.248;2023-10-31T02:57:26;48.10;;;21.85;;
43706;SDS011;61348;53.392;-6.248;2023-10-31T02:59:53;52.13;;;21.00;;
43706;SDS011;61348;53.392;-6.248;2023-10-31T03:02:20;56.75;;;21.58;;
43706;SDS011;61348;53.392;-6.248;2023-10-31T03:04:47;44.88;;;21.00;;
43706;SDS011;61348;53.392;-6.248;2023-10-31T03:07:14;51.13;;;20.90;;
43706;SDS011;61348;53.392;-6.248;2023-10-31T03:09:41;54.55;;;21.05;;
43706;SDS011;61348;53.392;-6.248;2023-10-31T03:12:07;51.92;;;21.00;;
43706;SDS011;61348;53.392;-6.248;2023-10-31T03:14:34;58.53;;;21.73;;
43706;SDS011;61348;53.392;-6.248;2023-10-31T03:17:01;60.67;;;22.52;;
43706;SDS011;61348;53.392;-6.248;2023-10-31T03:19:28;58.33;;;22.42;;
43706;SDS011;61348;53.392;-6.248;2023-10-31T03:21:54;62.40;;;22.58;;
43706;SDS011;61348;53.392;-6.248;2023-10-31T03:24:21;57.25;;;22.30;;
43706;SDS011;61348;53.392;-6.248;2023-10-31T03:26:48;68.38;;;25.45;;
43706;SDS011;61348;53.392;-6.248;2023-10-31T03:29:15;64.07;;;23.45;;
43706;SDS011;61348;53.392;-6.248;2023-10-31T03:31:41;55.30;;;21.73;;
43706;SDS011;61348;53.392;-6.248;2023-10-31T03:34:08;53.67;;;20.58;;
43706;SDS011;61348;53.392;-6.248;2023-10-31T03:36:35;49.60;;;21.77;;
43706;SDS011;61348;53.392;-6.248;2023-10-31T03:39:01;47.20;;;20.77;;
43706;SDS011;61348;53.392;-6.248;2023-10-31T03:41:28;49.67;;;21.33;;
43706;SDS011;61348;53.392;-6.248;2023-10-31T03:43:55;60.33;;;21.83;;
43706;SDS011;61348;53.392;-6.248;2023-10-31T03:46:22;38.70;;;17.73;;
43706;SDS011;61348;53.392;-6.248;2023-10-31T03:48:48;42.75;;;17.05;;
43706;SDS011;61348;53.392;-6.248;2023-10-31T03:51:16;37.95;;;17.25;;
43706;SDS011;61348;53.392;-6.248;2023-10-31T03:53:43;41.28;;;17.00;;
43706;SDS011;61348;53.392;-6.248;2023-10-31T03:56:09;38.92;;;16.77;;
43706;SDS011;61348;53.392;-6.248;2023-10-31T03:58:36;32.35;;;14.75;;
43706;SDS011;61348;53.392;-6.248;2023-10-31T04:01:03;32.88;;;14.10;;
43706;SDS011;61348;53.392;-6.248;2023-10-31T04:03:30;27.95;;;12.85;;
43706;SDS011;61348;53.392;-6.248;2023-10-31T04:05:57;25.33;;;13.05;;
43706;SDS011;61348;53.392;-6.248;2023-10-31T04:08:23;27.48;;;12.43;;
43706;SDS011;61348;53.392;-6.248;2023-10-31T04:10:50;26.10;;;12.32;;
43706;SDS011;61348;53.392;-6.248;2023-10-31T04:13:17;25.80;;;11.70;;
43706;SDS011;61348;53.392;-6.248;2023-10-31T04:15:43;19.88;;;10.35;;
43706;SDS011;61348;53.392;-6.248;2023-10-31T04:18:10;21.02;;;9.93;;
43706;SDS011;61348;53.392;-6.248;2023-10-31T04:20:37;20.80;;;9.90;;
43706;SDS011;61348;53.392;-6.248;2023-10-31T04:23:04;19.02;;;10.32;;
43706;SDS011;61348;53.392;-6.248;2023-10-31T04:25:32;18.40;;;9.40;;
43706;SDS011;61348;53.392;-6.248;2023-10-31T04:27:59;17.73;;;9.52;;
43706;SDS011;61348;53.392;-6.248;2023-10-31T04:30:25;20.75;;;10.43;;
43706;SDS011;61348;53.392;-6.248;2023-10-31T04:32:54;21.02;;;9.98;;
43706;SDS011;61348;53.392;-6.248;2023-10-31T04:35:20;20.33;;;10.25;;
43706;SDS011;61348;53.392;-6.248;2023-10-31T04:37:47;27.33;;;11.60;;
43706;SDS011;61348;53.392;-6.248;2023-10-31T04:40:14;22.80;;;9.88;;
43706;SDS011;61348;53.392;-6.248;2023-10-31T04:42:41;21.42;;;11.15;;
43706;SDS011;61348;53.392;-6.248;2023-10-31T04:45:08;18.00;;;10.50;;
43706;SDS011;61348;53.392;-6.248;2023-10-31T04:47:36;21.50;;;10.35;;
43706;SDS011;61348;53.392;-6.248;2023-10-31T04:50:03;25.70;;;11.43;;
43706;SDS011;61348;53.392;-6.248;2023-10-31T04:52:30;22.05;;;11.45;;
43706;SDS011;61348;53.392;-6.248;2023-10-31T04:54:57;22.38;;;11.05;;
43706;SDS011;61348;53.392;-6.248;2023-10-31T04:57:23;25.02;;;12.27;;
43706;SDS011;61348;53.392;-6.248;2023-10-31T04:59:50;28.15;;;13.82;;
43706;SDS011;61348;53.392;-6.248;2023-10-31T05:02:17;26.95;;;13.25;;
43706;SDS011;61348;53.392;-6.248;2023-10-31T05:04:44;31.27;;;13.07;;
43706;SDS011;61348;53.392;-6.248;2023-10-31T05:07:12;33.05;;;13.93;;
43706;SDS011;61348;53.392;-6.248;2023-10-31T05:09:40;34.75;;;14.43;;
43706;SDS011;61348;53.392;-6.248;2023-10-31T05:12:11;36.40;;;15.15;;
43706;SDS011;61348;53.392;-6.248;2023-10-31T05:14:39;38.42;;;16.50;;
43706;SDS011;61348;53.392;-6.248;2023-10-31T05:17:06;40.42;;;16.85;;
43706;SDS011;61348;53.392;-6.248;2023-10-31T05:19:33;45.67;;;17.27;;
43706;SDS011;61348;53.392;-6.248;2023-10-31T05:22:00;44.72;;;17.10;;
43706;SDS011;61348;53.392;-6.248;2023-10-31T05:24:26;44.10;;;17.75;;
43706;SDS011;61348;53.392;-6.248;2023-10-31T05:26:53;47.65;;;17.35;;
43706;SDS011;61348;53.392;-6.248;2023-10-31T05:29:20;39.60;;;17.35;;
43706;SDS011;61348;53.392;-6.248;2023-10-31T05:31:47;41.50;;;17.42;;
43706;SDS011;61348;53.392;-6.248;2023-10-31T05:34:13;42.53;;;18.65;;
43706;SDS011;61348;53.392;-6.248;2023-10-31T05:36:40;38.65;;;17.10;;
43706;SDS011;61348;53.392;-6.248;2023-10-31T05:39:07;42.85;;;16.05;;
43706;SDS011;61348;53.392;-6.248;2023-10-31T05:41:34;35.30;;;16.08;;
43706;SDS011;61348;53.392;-6.248;2023-10-31T05:44:01;34.58;;;14.35;;
43706;SDS011;61348;53.392;-6.248;2023-10-31T05:46:28;33.47;;;14.85;;
43706;SDS011;61348;53.392;-6.248;2023-10-31T05:48:55;32.55;;;15.02;;
43706;SDS011;61348;53.392;-6.248;2023-10-31T05:51:22;38.15;;;14.65;;
43706;SDS011;61348;53.392;-6.248;2023-10-31T05:53:51;28.50;;;13.82;;
43706;SDS011;61348;53.392;-6.248;2023-10-31T05:56:18;33.55;;;15.13;;
43706;SDS011;61348;53.392;-6.248;2023-10-31T05:58:45;35.08;;;15.80;;
43706;SDS011;61348;53.392;-6.248;2023-10-31T06:01:12;32.05;;;14.73;;
43706;SDS011;61348;53.392;-6.248;2023-10-31T06:03:42;30.00;;;15.10;;
43706;SDS011;61348;53.392;-6.248;2023-10-31T06:06:12;28.73;;;14.10;;
43706;SDS011;61348;53.392;-6.248;2023-10-31T06:08:40;30.23;;;14.70;;
43706;SDS011;61348;53.392;-6.248;2023-10-31T06:11:07;36.90;;;15.57;;
43706;SDS011;61348;53.392;-6.248;2023-10-31T06:13:34;31.58;;;13.68;;
43706;SDS011;61348;53.392;-6.248;2023-10-31T06:16:01;53.95;;;17.90;;
43706;SDS011;61348;53.392;-6.248;2023-10-31T06:18:28;35.63;;;17.30;;
43706;SDS011;61348;53.392;-6.248;2023-10-31T06:20:55;35.75;;;15.13;;
43706;SDS011;61348;53.392;-6.248;2023-10-31T06:23:22;29.85;;;13.98;;
43706;SDS011;61348;53.392;-6.248;2023-10-31T06:25:49;23.88;;;12.82;;
43706;SDS011;61348;53.392;-6.248;2023-10-31T06:28:16;26.90;;;13.63;;
43706;SDS011;61348;53.392;-6.248;2023-10-31T06:30:43;32.08;;;13.35;;
43706;SDS011;61348;53.392;-6.248;2023-10-31T06:33:10;32.35;;;15.52;;
43706;SDS011;61348;53.392;-6.248;2023-10-31T06:35:38;33.78;;;15.05;;
43706;SDS011;61348;53.392;-6.248;2023-10-31T06:38:05;28.55;;;13.65;;
43706;SDS011;61348;53.392;-6.248;2023-10-31T06:40:32;34.55;;;15.65;;
43706;SDS011;61348;53.392;-6.248;2023-10-31T06:42:58;26.27;;;14.27;;
43706;SDS011;61348;53.392;-6.248;2023-10-31T06:45:25;27.98;;;14.07;;
43706;SDS011;61348;53.392;-6.248;2023-10-31T06:47:52;27.85;;;13.23;;
43706;SDS011;61348;53.392;-6.248;2023-10-31T06:50:20;24.02;;;11.57;;
43706;SDS011;61348;53.392;-6.248;2023-10-31T06:52:46;22.35;;;11.55;;
43706;SDS011;61348;53.392;-6.248;2023-10-31T06:55:13;24.48;;;12.15;;
43706;SDS011;61348;53.392;-6.248;2023-10-31T06:57:40;26.80;;;13.02;;
43706;SDS011;61348;53.392;-6.248;2023-10-31T07:00:07;25.48;;;12.27;;
43706;SDS011;61348;53.392;-6.248;2023-10-31T07:02:35;21.35;;;12.32;;
43706;SDS011;61348;53.392;-6.248;2023-10-31T07:05:02;24.58;;;10.93;;
43706;SDS011;61348;53.392;-6.248;2023-10-31T07:07:30;20.15;;;12.13;;
43706;SDS011;61348;53.392;-6.248;2023-10-31T07:09:56;22.17;;;11.32;;
43706;SDS011;61348;53.392;-6.248;2023-10-31T07:12:24;25.60;;;11.75;;
43706;SDS011;61348;53.392;-6.248;2023-10-31T07:14:51;23.33;;;11.25;;
43706;SDS011;61348;53.392;-6.248;2023-10-31T07:17:17;21.65;;;11.35;;
43706;SDS011;61348;53.392;-6.248;2023-10-31T07:19:44;23.95;;;11.48;;
43706;SDS011;61348;53.392;-6.248;2023-10-31T07:22:11;20.92;;;11.45;;
43706;SDS011;61348;53.392;-6.248;2023-10-31T07:24:38;17.52;;;10.57;;
43706;SDS011;61348;53.392;-6.248;2023-10-31T07:27:06;16.60;;;9.27;;
43706;SDS011;61348;53.392;-6.248;2023-10-31T07:29:32;20.88;;;9.40;;
43706;SDS011;61348;53.392;-6.248;2023-10-31T07:31:59;13.20;;;9.13;;
43706;SDS011;61348;53.392;-6.248;2023-10-31T07:34:26;18.98;;;9.00;;
43706;SDS011;61348;53.392;-6.248;2023-10-31T07:36:54;14.20;;;7.88;;
43706;SDS011;61348;53.392;-6.248;2023-10-31T07:39:21;15.77;;;8.38;;
43706;SDS011;61348;53.392;-6.248;2023-10-31T07:41:47;17.92;;;10.30;;
43706;SDS011;61348;53.392;-6.248;2023-10-31T07:44:14;12.02;;;7.55;;
43706;SDS011;61348;53.392;-6.248;2023-10-31T07:46:41;15.65;;;8.13;;
43706;SDS011;61348;53.392;-6.248;2023-10-31T07:49:08;13.10;;;7.80;;
43706;SDS011;61348;53.392;-6.248;2023-10-31T07:51:34;13.45;;;8.18;;
43706;SDS011;61348;53.392;-6.248;2023-10-31T07:54:01;12.77;;;7.25;;
43706;SDS011;61348;53.392;-6.248;2023-10-31T07:56:28;14.02;;;7.57;;
43706;SDS011;61348;53.392;-6.248;2023-10-31T07:58:55;15.23;;;7.80;;
43706;SDS011;61348;53.392;-6.248;2023-10-31T08:01:23;12.10;;;8.57;;
43706;SDS011;61348;53.392;-6.248;2023-10-31T08:03:49;13.00;;;7.43;;
43706;SDS011;61348;53.392;-6.248;2023-10-31T08:06:16;12.52;;;7.03;;
43706;SDS011;61348;53.392;-6.248;2023-10-31T08:08:43;13.05;;;7.75;;
43706;SDS011;61348;53.392;-6.248;2023-10-31T08:11:10;11.82;;;7.15;;
43706;SDS011;61348;53.392;-6.248;2023-10-31T08:13:37;11.73;;;6.22;;
43706;SDS011;61348;53.392;-6.248;2023-10-31T08:16:05;10.98;;;7.03;;
43706;SDS011;61348;53.392;-6.248;2023-10-31T08:18:32;10.98;;;6.35;;
43706;SDS011;61348;53.392;-6.248;2023-10-31T08:21:00;8.52;;;6.22;;
43706;SDS011;61348;53.392;-6.248;2023-10-31T08:23:31;9.55;;;6.55;;
43706;SDS011;61348;53.392;-6.248;2023-10-31T08:25:58;11.15;;;6.15;;
43706;SDS011;61348;53.392;-6.248;2023-10-31T08:28:24;8.43;;;5.78;;
43706;SDS011;61348;53.392;-6.248;2023-10-31T08:30:51;11.80;;;6.05;;
43706;SDS011;61348;53.392;-6.248;2023-10-31T08:33:18;9.10;;;6.20;;
43706;SDS011;61348;53.392;-6.248;2023-10-31T08:35:45;8.80;;;6.50;;
43706;SDS011;61348;53.392;-6.248;2023-10-31T08:38:13;10.18;;;6.10;;
43706;SDS011;61348;53.392;-6.248;2023-10-31T08:40:52;11.82;;;6.47;;
43706;SDS011;61348;53.392;-6.248;2023-10-31T08:43:19;13.23;;;5.68;;
43706;SDS011;61348;53.392;-6.248;2023-10-31T08:45:46;11.77;;;5.53;;
43706;SDS011;61348;53.392;-6.248;2023-10-31T08:48:13;10.23;;;5.38;;
43706;SDS011;61348;53.392;-6.248;2023-10-31T08:50:42;6.45;;;4.88;;
43706;SDS011;61348;53.392;-6.248;2023-10-31T08:53:09;9.48;;;5.05;;
43706;SDS011;61348;53.392;-6.248;2023-10-31T08:55:36;10.98;;;4.75;;
43706;SDS011;61348;53.392;-6.248;2023-10-31T08:58:03;8.63;;;4.82;;
43706;SDS011;61348;53.392;-6.248;2023-10-31T09:00:30;7.97;;;4.18;;
43706;SDS011;61348;53.392;-6.248;2023-10-31T09:02:56;8.88;;;4.90;;
43706;SDS011;61348;53.392;-6.248;2023-10-31T09:05:23;8.25;;;4.47;;
43706;SDS011;61348;53.392;-6.248;2023-10-31T09:07:50;7.65;;;4.80;;
43706;SDS011;61348;53.392;-6.248;2023-10-31T09:10:17;6.50;;;4.13;;
43706;SDS011;61348;53.392;-6.248;2023-10-31T09:12:44;9.07;;;4.68;;
43706;SDS011;61348;53.392;-6.248;2023-10-31T09:15:12;6.75;;;4.63;;
43706;SDS011;61348;53.392;-6.248;2023-10-31T09:17:40;5.85;;;4.47;;
43706;SDS011;61348;53.392;-6.248;2023-10-31T09:20:07;7.32;;;4.35;;
43706;SDS011;61348;53.392;-6.248;2023-10-31T09:22:34;4.93;;;3.65;;
43706;SDS011;61348;53.392;-6.248;2023-10-31T09:25:01;5.18;;;3.92;;
43706;SDS011;61348;53.392;-6.248;2023-10-31T09:27:29;5.15;;;3.53;;
43706;SDS011;61348;53.392;-6.248;2023-10-31T09:29:55;5.72;;;4.40;;
43706;SDS011;61348;53.392;-6.248;2023-10-31T09:32:22;4.80;;;3.20;;
43706;SDS011;61348;53.392;-6.248;2023-10-31T09:34:49;6.15;;;3.65;;
43706;SDS011;61348;53.392;-6.248;2023-10-31T09:37:16;6.13;;;3.20;;
43706;SDS011;61348;53.392;-6.248;2023-10-31T09:39:43;4.00;;;3.00;;
43706;SDS011;61348;53.392;-6.248;2023-10-31T09:42:10;4.57;;;3.42;;
43706;SDS011;61348;53.392;-6.248;2023-10-31T09:44:36;4.50;;;2.92;;
43706;SDS011;61348;53.392;-6.248;2023-10-31T09:47:03;3.83;;;2.58;;
43706;SDS011;61348;53.392;-6.248;2023-10-31T09:49:33;3.72;;;2.60;;
43706;SDS011;61348;53.392;-6.248;2023-10-31T09:52:00;3.55;;;3.20;;
43706;SDS011;61348;53.392;-6.248;2023-10-31T09:54:28;4.40;;;3.08;;
43706;SDS011;61348;53.392;-6.248;2023-10-31T09:56:55;3.92;;;2.60;;
43706;SDS011;61348;53.392;-6.248;2023-10-31T09:59:21;4.15;;;2.92;;
43706;SDS011;61348;53.392;-6.248;2023-10-31T10:01:48;4.13;;;3.17;;
43706;SDS011;61348;53.392;-6.248;2023-10-31T10:04:15;4.28;;;2.72;;
43706;SDS011;61348;53.392;-6.248;2023-10-31T10:06:51;4.90;;;2.88;;
43706;SDS011;61348;53.392;-6.248;2023-10-31T10:09:18;3.83;;;2.47;;
43706;SDS011;61348;53.392;-6.248;2023-10-31T10:11:45;5.38;;;2.53;;
43706;SDS011;61348;53.392;-6.248;2023-10-31T10:14:12;3.08;;;1.90;;
43706;SDS011;61348;53.392;-6.248;2023-10-31T10:16:39;4.13;;;2.28;;
43706;SDS011;61348;53.392;-6.248;2023-10-31T10:21:47;4.18;;;2.15;;
43706;SDS011;61348;53.392;-6.248;2023-10-31T10:24:18;4.18;;;1.77;;
43706;SDS011;61348;53.392;-6.248;2023-10-31T10:26:46;6.80;;;2.83;;
43706;SDS011;61348;53.392;-6.248;2023-10-31T10:29:14;4.28;;;2.42;;
43706;SDS011;61348;53.392;-6.248;2023-10-31T10:31:41;4.18;;;1.98;;
43706;SDS011;61348;53.392;-6.248;2023-10-31T10:34:08;2.05;;;1.55;;
43706;SDS011;61348;53.392;-6.248;2023-10-31T10:36:36;1.95;;;1.60;;
43706;SDS011;61348;53.392;-6.248;2023-10-31T10:39:03;2.05;;;1.85;;
43706;SDS011;61348;53.392;-6.248;2023-10-31T10:41:30;2.00;;;1.60;;
43706;SDS011;61348;53.392;-6.248;2023-10-31T10:44:05;4.63;;;1.73;;
43706;SDS011;61348;53.392;-6.248;2023-10-31T10:46:34;2.42;;;1.30;;
43706;SDS011;61348;53.392;-6.248;2023-10-31T10:49:05;4.72;;;1.48;;
43706;SDS011;61348;53.392;-6.248;2023-10-31T10:54:26;1.80;;;1.52;;
43706;SDS011;61348;53.392;-6.248;2023-10-31T10:57:24;2.58;;;1.60;;
43706;SDS011;61348;53.392;-6.248;2023-10-31T10:59:55;3.28;;;1.42;;
43706;SDS011;61348;53.392;-6.248;2023-10-31T11:02:28;3.70;;;2.20;;
43706;SDS011;61348;53.392;-6.248;2023-10-31T11:04:56;3.35;;;3.05;;
43706;SDS011;61348;53.392;-6.248;2023-10-31T11:07:25;2.28;;;1.42;;
43706;SDS011;61348;53.392;-6.248;2023-10-31T11:09:55;5.43;;;1.55;;
43706;SDS011;61348;53.392;-6.248;2023-10-31T11:12:22;2.40;;;1.73;;
43706;SDS011;61348;53.392;-6.248;2023-10-31T11:14:49;2.63;;;1.58;;
43706;SDS011;61348;53.392;-6.248;2023-10-31T11:17:24;7.00;;;1.33;;
43706;SDS011;61348;53.392;-6.248;2023-10-31T11:19:54;2.55;;;1.38;;
43706;SDS011;61348;53.392;-6.248;2023-10-31T11:22:23;2.55;;;1.45;;
43706;SDS011;61348;53.392;-6.248;2023-10-31T11:24:51;2.40;;;1.30;;
43706;SDS011;61348;53.392;-6.248;2023-10-31T11:27:18;1.40;;;1.10;;
43706;SDS011;61348;53.392;-6.248;2023-10-31T11:29:46;4.35;;;1.25;;
43706;SDS011;61348;53.392;-6.248;2023-10-31T11:32:14;2.83;;;1.52;;
43706;SDS011;61348;53.392;-6.248;2023-10-31T11:34:41;2.38;;;1.33;;
43706;SDS011;61348;53.392;-6.248;2023-10-31T11:42:47;0.80;;;0.75;;
43706;SDS011;61348;53.392;-6.248;2023-10-31T11:45:26;1.85;;;1.13;;
43706;SDS011;61348;53.392;-6.248;2023-10-31T11:47:56;3.38;;;1.50;;
43706;SDS011;61348;53.392;-6.248;2023-10-31T11:50:23;6.07;;;3.35;;
43706;SDS011;61348;53.392;-6.248;2023-10-31T11:52:59;5.20;;;2.78;;
43706;SDS011;61348;53.392;-6.248;2023-10-31T11:55:45;0.93;;;0.70;;
43706;SDS011;61348;53.392;-6.248;2023-10-31T11:58:17;2.58;;;1.02;;
43706;SDS011;61348;53.392;-6.248;2023-10-31T12:00:50;3.70;;;0.90;;
43706;SDS011;61348;53.392;-6.248;2023-10-31T12:03:19;1.13;;;0.80;;
43706;SDS011;61348;53.392;-6.248;2023-10-31T12:05:50;2.53;;;0.75;;
43706;SDS011;61348;53.392;-6.248;2023-10-31T12:13:58;1.67;;;1.33;;
43706;SDS011;61348;53.392;-6.248;2023-10-31T12:16:28;4.32;;;1.30;;
43706;SDS011;61348;53.392;-6.248;2023-10-31T12:18:56;2.47;;;0.93;;
43706;SDS011;61348;53.392;-6.248;2023-10-31T12:21:34;0.60;;;0.60;;
43706;SDS011;61348;53.392;-6.248;2023-10-31T12:24:02;4.85;;;1.10;;
43706;SDS011;61348;53.392;-6.248;2023-10-31T12:26:31;3.55;;;1.02;;
43706;SDS011;61348;53.392;-6.248;2023-10-31T12:29:33;1.85;;;1.10;;
43706;SDS011;61348;53.392;-6.248;2023-10-31T12:31:53;4.07;;;0.93;;
43706;SDS011;61348;53.392;-6.248;2023-10-31T12:34:22;1.30;;;0.90;;
43706;SDS011;61348;53.392;-6.248;2023-10-31T12:36:50;1.02;;;0.90;;
43706;SDS011;61348;53.392;-6.248;2023-10-31T12:39:22;0.90;;;0.60;;
43706;SDS011;61348;53.392;-6.248;2023-10-31T12:41:52;2.15;;;0.90;;
43706;SDS011;61348;53.392;-6.248;2023-10-31T12:44:22;2.15;;;1.23;;
43706;SDS011;61348;53.392;-6.248;2023-10-31T12:46:51;4.20;;;1.57;;
43706;SDS011;61348;53.392;-6.248;2023-10-31T12:49:19;4.03;;;1.17;;
43706;SDS011;61348;53.392;-6.248;2023-10-31T12:51:59;2.30;;;1.25;;
43706;SDS011;61348;53.392;-6.248;2023-10-31T12:54:30;6.47;;;1.50;;
43706;SDS011;61348;53.392;-6.248;2023-10-31T12:57:06;3.47;;;1.52;;
43706;SDS011;61348;53.392;-6.248;2023-10-31T12:59:35;6.07;;;2.33;;
43706;SDS011;61348;53.392;-6.248;2023-10-31T13:02:04;2.13;;;1.88;;
43706;SDS011;61348;53.392;-6.248;2023-10-31T13:04:33;3.97;;;1.50;;
43706;SDS011;61348;53.392;-6.248;2023-10-31T13:07:02;2.25;;;1.55;;
43706;SDS011;61348;53.392;-6.248;2023-10-31T13:09:36;3.15;;;1.88;;
43706;SDS011;61348;53.392;-6.248;2023-10-31T13:12:05;1.73;;;1.05;;
43706;SDS011;61348;53.392;-6.248;2023-10-31T13:14:34;3.38;;;1.60;;
43706;SDS011;61348;53.392;-6.248;2023-10-31T13:17:01;2.55;;;1.52;;
43706;SDS011;61348;53.392;-6.248;2023-10-31T13:19:29;1.95;;;1.45;;
43706;SDS011;61348;53.392;-6.248;2023-10-31T13:21:56;2.72;;;1.35;;
43706;SDS011;61348;53.392;-6.248;2023-10-31T13:24:23;3.55;;;1.40;;
43706;SDS011;61348;53.392;-6.248;2023-10-31T13:26:50;3.97;;;1.83;;
43706;SDS011;61348;53.392;-6.248;2023-10-31T13:29:19;10.23;;;2.85;;
43706;SDS011;61348;53.392;-6.248;2023-10-31T13:31:46;2.70;;;1.35;;
43706;SDS011;61348;53.392;-6.248;2023-10-31T13:34:13;2.15;;;1.70;;
43706;SDS011;61348;53.392;-6.248;2023-10-31T13:36:40;2.17;;;1.70;;
43706;SDS011;61348;53.392;-6.248;2023-10-31T13:39:07;4.40;;;1.67;;
43706;SDS011;61348;53.392;-6.248;2023-10-31T13:41:35;5.40;;;1.33;;
43706;SDS011;61348;53.392;-6.248;2023-10-31T13:44:02;2.47;;;1.20;;
43706;SDS011;61348;53.392;-6.248;2023-10-31T13:46:30;2.15;;;1.27;;
43706;SDS011;61348;53.392;-6.248;2023-10-31T13:48:57;5.13;;;1.63;;
43706;SDS011;61348;53.392;-6.248;2023-10-31T13:51:24;4.28;;;1.08;;
43706;SDS011;61348;53.392;-6.248;2023-10-31T13:53:50;2.35;;;1.13;;
43706;SDS011;61348;53.392;-6.248;2023-10-31T13:56:17;3.08;;;1.35;;
43706;SDS011;61348;53.392;-6.248;2023-10-31T13:58:44;2.25;;;1.35;;
43706;SDS011;61348;53.392;-6.248;2023-10-31T14:01:11;2.10;;;1.23;;
43706;SDS011;61348;53.392;-6.248;2023-10-31T14:03:38;3.22;;;1.10;;
43706;SDS011;61348;53.392;-6.248;2023-10-31T14:06:05;3.28;;;1.00;;
43706;SDS011;61348;53.392;-6.248;2023-10-31T14:08:32;3.20;;;1.95;;
43706;SDS011;61348;53.392;-6.248;2023-10-31T14:10:59;8.13;;;2.67;;
43706;SDS011;61348;53.392;-6.248;2023-10-31T14:13:25;1.52;;;1.42;;
43706;SDS011;61348;53.392;-6.248;2023-10-31T14:15:52;2.38;;;1.70;;
43706;SDS011;61348;53.392;-6.248;2023-10-31T14:18:19;3.47;;;1.50;;
43706;SDS011;61348;53.392;-6.248;2023-10-31T14:20:46;3.20;;;1.70;;
43706;SDS011;61348;53.392;-6.248;2023-10-31T14:23:12;1.73;;;1.58;;
43706;SDS011;61348;53.392;-6.248;2023-10-31T14:25:39;9.23;;;1.73;;
43706;SDS011;61348;53.392;-6.248;2023-10-31T14:28:09;3.72;;;1.50;;
43706;SDS011;61348;53.392;-6.248;2023-10-31T14:30:36;4.03;;;1.30;;
43706;SDS011;61348;53.392;-6.248;2023-10-31T14:33:03;2.22;;;1.20;;
43706;SDS011;61348;53.392;-6.248;2023-10-31T14:35:30;1.90;;;1.50;;
43706;SDS011;61348;53.392;-6.248;2023-10-31T14:37:57;0.98;;;0.88;;